Welcome to our Virtual Airline
Sign-in:

Flight KHKDIV

  • Submitted By: Karl Klotz
  • Departure Airport: Bell Island Hot Springs (KBE)
  • Arrival Airport: Meyers Chuck SPB (84K)
  • Aircraft: ICON A5 (N0A5MM)
  • Flight Time: 00.22.44
  • Date Submitted: 21/04/24
  • Route: DIRECT
  • Status: Accepted
Flight Details
Gross Revenue:
(0 load / $ 0.00 per unit
$ 0.00
Fuel Cost:
(4.08233 fuel used @ 0 / unit)
$ 0.00

Additional Log Information:

View Log

[16:52] ----- Flight Opened -----
[16:52] Cigar Box - 1.1.4.0
[16:52] FS:
[16:52] FSUIPC: v7,008
[16:52] Flight Number: KHKDIV
[16:52] FS Aircraft: Icon A5 Asobo
[16:52] FS Model: TT:ATCCOM.AC_MODEL A5.0
[16:52] FS Type: TT:ATCCOM.ATC_NAME_ICON
[16:52] Departure: KBE
[16:52] Arrival: 84K
[16:52] Flight Level: 3000
[16:52] Flight Type: H
[16:52] Passengers: 0
[16:52] FOB: 60 lbs
[16:52] Gate: n/a
[16:52] NOTE: Parking Brake Ignored
[16:52] Crash Detection: Disabled
[16:52] Crash Detection Aircraft: Disabled
[16:52] Engines: 1 Piston
[16:52] NOTE: Boarding has started
[16:52] Parking Brake: Engaged
[16:52] Landing Gear: Retracted
[16:52] Flaps: Position 1
[16:52] Light Data: Navigation ON
[16:52] Light Data: Recognition lights ON
[16:52] Light Data: Wing lights ON
[16:52] Light Data: Logo lights ON
[16:52] Light Data: Cabin lights ON
[16:52] Main Door Closed
[16:52] COM1: 122.90
[16:52] COM2: 124.85
[16:52] Transponder: 7000
[16:52] NAV1: 110.50
[16:52] NAV2: 110.50
[16:52] ADF1: 890.0
[16:52] ADF2: 890.0
[16:52] Navigation Mode: GPS
[16:52] Navigation Mode: GPS
[16:52] Engine 1: Started
[16:52] Light Data: Beacon ON
[16:52] Light Data: Instrument lights ON
[16:52] Light Data: Strobe lights ON
[16:52] Light Data: Taxi lights ON
[16:52] Light Data: Landing lights ON
[16:52] Light Data: Taxi lights OFF
[16:52] Light Data: Taxi lights ON
[16:52] Light Data: Taxi lights OFF
[16:53] Flaps: Position 0
[16:53] Flaps: Position 1
[16:53] Flaps: Position 2
[16:53] Flaps: Position 1
[16:53] NOTE: Taxi started
[16:53] NOTE: ----- TAKE OFF -----
[16:53] GS: 52 knots
[16:53] TAS: 53 knots
[16:53] IAS: 51 knots
[16:53] VS: 32 fpm
[16:53] FOB: 60 lbs
[16:53] Heading: 230°
[16:53] Pitch: 2°
[16:53] Bank: -7°
[16:53] Aircraft Weight: 1450,56 lbs
[16:53] Nearest Airport: KBE
[16:53] Distance: 0,36 miles
[16:53] Runway: ???
[16:53] Ground Surface: Water
[16:53] Ground Condition: Normal
[16:53] NOTE: Weather Report
[16:53] Wind Heading: 247°
[16:53] Wind Speed: 1 knots
[16:53] OAT: 15° C
[16:53] TAT: 15° C
[16:53] Precipitation: None
[16:53] Dew Point: 0° C
[16:53] Visibility: 86 miles
[16:53] METAR: KBEA 241435Z AUTO 33007KT 10SM CLR 26/20 A2985 RMK AO2 T02600203 KBEH 241353Z AUTO 12004KT 10SM OVC044 10/06 A2991 RMK AO2 SLP130 T01000056 KBED 241351Z 28009KT 10SM CLR 17/00 A2990 RMK AO2 SLP136 T01720000 KBEC 241435Z AUTO 36012KT 10SM CLR 09/06 A2998 RMK AO2 T00940058
[16:53] NOTE: Climb started
[16:54] Flaps: Position 0
[16:54] GS: 68 knots
[16:54] TAS: 71 knots
[16:54] IAS: 70 knots
[16:54] VS: 1296 fpm
[16:54] View Mode: Virtual Cockpit
[16:58] Transponder: 7600
[16:59] Transponder: 0600
[16:59] Transponder: 0700
[16:59] Transponder: 0600
[16:59] Transponder: 0601
[16:59] Transponder: 0600
[17:00] Transponder: 0601
[17:00] Transponder: 0600
[17:00] Transponder: 0601
[17:00] Transponder: 0602
[17:06] Transponder: 0502
[17:06] Transponder: 0302
[17:08] Flaps: Position 1
[17:08] GS: 95 knots
[17:08] TAS: 97 knots
[17:08] IAS: 95 knots
[17:08] VS: -733 fpm
[17:08] Flaps: Position 2
[17:08] GS: 95 knots
[17:08] TAS: 97 knots
[17:08] IAS: 95 knots
[17:08] VS: -767 fpm
[17:13] NOTE: ----- LANDED -----
[17:13] Landing Rate: -86,12 fpm
[17:13] GS: 42 knots
[17:13] TAS: 43 knots
[17:13] IAS: 42 knots
[17:13] VS: -80 fpm
[17:13] FOB: 51 lbs
[17:13] Heading: 145°
[17:13] Pitch: 3°
[17:13] Bank: 0°
[17:13] Aircraft Weight: 1441,25 lbs
[17:13] Nearest Airport: 84K
[17:13] Distance: 0,17 miles
[17:13] Runway: ???
[17:13] Ground Surface: Water
[17:13] Ground Condition: Normal
[17:13] NOTE: Weather Report
[17:13] Wind Heading: 248°
[17:13] Wind Speed: 1 knots
[17:13] OAT: 15° C
[17:13] TAT: 15° C
[17:13] Precipitation: None
[17:13] Dew Point: 0° C
[17:13] Visibility: 86 miles
[17:13] METAR:
[17:13] View Mode: Virtual Cockpit
[17:13] NOTE: Taxi started
[17:13] NOTE: Arrived
[17:15] Flaps: Position 1
[17:15] Flaps: Position 0
[17:16] Engine 1: Stopped
[17:16] Light Data: Beacon OFF
[17:16] Light Data: Instrument lights OFF
[17:16] Light Data: Landing lights OFF
[17:16] Light Data: Strobe lights OFF
[17:16] Gate: n/a
[17:16] NOTE: Flight Completed
[17:16] FS Aircraft: Icon A5 Asobo
[17:16] FS Model: TT:ATCCOM.AC_MODEL A5.0
[17:16] FS Type: TT:ATCCOM.ATC_NAME_ICON
[17:16] FOB: 51 lbs
[17:16] Fuel Used: 9 lbs
[17:16] Flight Time: 00:22:44
[17:16] Flight Time (Dawn): 00:00:00
[17:16] Flight Time (Day): 00:22:44
[17:16] Flight Time (Dusk): 00:00:00
[17:16] Flight Time (Night): 00:00:00
[17:16] Total Landings: 1
[17:16] MaxSim Rate: 1x
[17:16] Cigar Box - 1.1.4.0
[17:16] ----- Flight Closed -----

Route Map